Time;durP1;ratioP1;P1;durP2;ratioP2;P2;SDS_P1;SDS_P2;PMS_P1;PMS_P2;Temp;Humidity;BMP_temperature;BMP_pressure;BME280_temperature;BME280_humidity;BME280_pressure;Samples;Min_cycle;Max_cycle;Signal;HPM_P1;HPM_P2
2021/12/16 00:03:26;;;;;;;6.03;5.30;;;8.10;1.00;;;;;;5093240;28;20462;-82
2021/12/16 00:06:31;;;;;;;5.77;4.90;;;8.10;1.00;;;;;;5089807;28;20872;-80
2021/12/16 00:08:57;;;;;;;5.47;4.57;;;8.10;1.00;;;;;;5095871;27;20554;-81
2021/12/16 00:19:27;;;;;;;7.03;4.50;;;8.00;1.00;;;;;;5091263;27;20959;-83
2021/12/16 00:31:16;;;;;;;6.87;4.33;;;8.00;27.40;;;;;;5098095;27;20488;-83
2021/12/16 00:33:56;;;;;;;6.77;5.17;;;8.00;37.60;;;;;;5090923;27;20901;-83
2021/12/16 00:36:24;;;;;;;7.30;4.67;;;8.00;51.20;;;;;;5100837;28;20490;-83
2021/12/16 00:38:54;;;;;;;7.57;5.03;;;8.00;34.80;;;;;;5104185;27;20472;-82
2021/12/16 00:41:23;;;;;;;8.07;4.80;;;8.00;8.30;;;;;;5097013;27;22088;-82
2021/12/16 00:43:56;;;;;;;7.90;4.80;;;7.90;55.70;;;;;;5092495;28;20453;-82
2021/12/16 00:46:55;;;;;;;5.13;4.10;;;7.90;53.60;;;;;;5101144;28;20542;-83
2021/12/16 00:49:33;;;;;;;5.50;3.53;;;8.00;99.90;;;;;;5101191;28;20921;-84
2021/12/16 00:55:01;;;;;;;7.37;3.80;;;7.80;99.90;;;;;;5097228;27;20472;-83
2021/12/16 00:57:29;;;;;;;6.10;4.40;;;7.90;99.90;;;;;;5097984;27;20448;-83
2021/12/16 01:00:01;;;;;;;8.20;5.63;;;8.00;99.90;;;;;;5097429;27;20484;-85
2021/12/16 01:02:53;;;;;;;7.93;5.70;;;8.00;31.10;;;;;;5099701;27;20453;-83
2021/12/16 01:08:28;;;;;;;6.40;4.87;;;8.00;91.50;;;;;;5092546;28;20984;-82
2021/12/16 01:36:13;;;;;;;8.53;4.90;;;7.40;1.00;;;;;;5102264;27;20476;-80
2021/12/16 01:39:16;;;;;;;7.93;4.33;;;7.20;99.90;;;;;;5098797;27;20464;-80
2021/12/16 01:47:35;;;;;;;7.63;4.10;;;7.30;1.00;;;;;;5096343;28;21011;-82
2021/12/16 01:50:08;;;;;;;6.13;3.93;;;7.40;1.00;;;;;;5099080;28;20476;-82
2021/12/16 01:55:42;;;;;;;10.87;4.10;;;7.20;99.90;;;;;;5094244;27;20466;-82
2021/12/16 01:58:15;;;;;;;9.30;5.87;;;7.20;1.00;;;;;;5115737;27;20473;-81
2021/12/16 02:00:58;;;;;;;8.33;5.40;;;7.20;1.00;;;;;;5090267;27;20488;-83
2021/12/16 02:03:39;;;;;;;6.53;4.87;;;7.20;1.00;;;;;;5089403;28;20509;-82
2021/12/16 02:06:23;;;;;;;9.10;4.30;;;7.30;99.90;;;;;;5096431;28;20479;-83
2021/12/16 02:08:53;;;;;;;7.97;4.40;;;7.30;14.60;;;;;;5090782;27;20462;-82
2021/12/16 02:11:40;;;;;;;5.70;3.70;;;7.50;1.00;;;;;;5099741;28;20437;-81
2021/12/16 02:28:28;;;;;;;5.80;4.27;;;7.70;99.90;;;;;;5068115;28;20487;-83
2021/12/16 02:36:38;;;;;;;6.73;3.53;;;7.60;99.90;;;;;;5087354;28;20572;-82
2021/12/16 02:39:11;;;;;;;8.80;4.97;;;7.60;99.90;;;;;;5092767;28;20987;-83
2021/12/16 02:41:41;;;;;;;8.20;5.73;;;7.60;99.90;;;;;;5094331;28;20449;-82
2021/12/16 02:44:27;;;;;;;7.03;4.20;;;7.60;99.90;;;;;;5098783;28;20539;-83
2021/12/16 02:49:46;;;;;;;9.17;4.47;;;7.30;1.00;;;;;;5092181;27;20475;-82
2021/12/16 02:52:17;;;;;;;11.17;5.53;;;7.20;91.20;;;;;;5088667;27;20493;-82
2021/12/16 02:54:47;;;;;;;6.83;4.40;;;7.30;1.00;;;;;;5091687;28;20484;-82
2021/12/16 02:57:17;;;;;;;6.27;4.67;;;7.30;1.00;;;;;;5093554;27;20487;-81
2021/12/16 02:59:49;;;;;;;9.37;4.53;;;7.50;1.00;;;;;;5094691;27;20522;-82
2021/12/16 03:02:18;;;;;;;7.43;5.00;;;7.40;1.00;;;;;;5096014;28;20453;-82
2021/12/16 03:04:49;;;;;;;6.90;4.10;;;7.40;1.00;;;;;;5090402;27;20462;-82
2021/12/16 03:07:19;;;;;;;9.00;4.93;;;7.40;1.00;;;;;;5093055;27;20996;-82
2021/12/16 03:10:33;;;;;;;8.73;4.10;;;7.50;1.00;;;;;;5095582;27;20469;-82
2021/12/16 03:13:08;;;;;;;8.80;4.50;;;7.50;99.90;;;;;;5093256;27;20453;-83
2021/12/16 03:15:55;;;;;;;6.07;3.83;;;7.40;99.90;;;;;;5097149;28;20469;-82
2021/12/16 03:18:34;;;;;;;6.60;3.50;;;7.30;1.00;;;;;;5089447;27;20453;-82
2021/12/16 03:21:11;;;;;;;7.27;4.23;;;7.30;99.90;;;;;;5097478;28;20983;-82
2021/12/16 03:23:52;;;;;;;6.43;3.67;;;7.40;1.00;;;;;;5094880;28;20505;-82
2021/12/16 03:26:52;;;;;;;6.90;4.27;;;7.40;99.90;;;;;;5096550;28;20961;-81
2021/12/16 03:29:43;;;;;;;8.73;4.63;;;7.50;99.90;;;;;;5093647;28;20555;-83
2021/12/16 03:35:02;;;;;;;8.00;4.33;;;7.60;99.90;;;;;;5077533;27;20472;-82
2021/12/16 03:37:32;;;;;;;7.97;3.37;;;7.70;99.90;;;;;;5087747;28;20472;-79
2021/12/16 03:40:03;;;;;;;9.40;4.10;;;7.60;99.90;;;;;;5096083;28;20471;-82
2021/12/16 03:42:35;;;;;;;7.57;4.20;;;7.70;99.90;;;;;;5093952;28;20874;-83
2021/12/16 03:45:09;;;;;;;9.23;4.27;;;7.70;99.90;;;;;;5090600;27;20551;-82
2021/12/16 03:47:44;;;;;;;9.57;4.73;;;7.60;99.90;;;;;;5086927;28;20454;-80
2021/12/16 03:50:15;;;;;;;10.03;4.37;;;7.70;99.90;;;;;;5097209;28;20472;-81
2021/12/16 03:52:44;;;;;;;6.83;4.70;;;7.70;99.90;;;;;;5090440;28;20481;-82
2021/12/16 03:55:13;;;;;;;7.33;3.63;;;8.00;99.90;;;;;;5099642;28;20523;-80
2021/12/16 03:57:43;;;;;;;5.27;3.37;;;7.80;99.90;;;;;;5088555;28;21015;-80
2021/12/16 04:00:17;;;;;;;9.50;6.23;;;8.10;99.90;;;;;;5095034;28;20468;-81
2021/12/16 04:02:47;;;;;;;5.67;4.27;;;7.80;99.90;;;;;;5094604;28;20451;-80
2021/12/16 04:05:17;;;;;;;9.93;4.60;;;7.80;99.90;;;;;;5088956;28;20455;-82
2021/12/16 04:07:46;;;;;;;5.03;4.10;;;7.90;87.10;;;;;;5093835;28;20479;-81
2021/12/16 04:10:18;;;;;;;7.70;5.73;;;7.80;99.90;;;;;;5088738;28;20478;-81
2021/12/16 04:12:50;;;;;;;9.47;5.10;;;7.80;99.90;;;;;;5095066;28;20464;-82
2021/12/16 04:15:19;;;;;;;9.93;5.37;;;7.80;99.90;;;;;;5092550;28;20464;-82
2021/12/16 04:17:48;;;;;;;11.90;5.73;;;7.90;99.90;;;;;;5094934;28;21122;-81
2021/12/16 04:20:17;;;;;;;8.93;4.63;;;7.80;99.90;;;;;;5097934;28;20479;-81
2021/12/16 04:22:46;;;;;;;7.03;4.37;;;7.70;99.90;;;;;;5089506;28;20987;-81
2021/12/16 04:25:18;;;;;;;8.63;4.80;;;7.60;99.90;;;;;;5093082;28;20450;-82
2021/12/16 04:27:50;;;;;;;12.33;4.97;;;7.50;99.90;;;;;;5100851;28;20448;-83
2021/12/16 04:30:19;;;;;;;10.33;4.60;;;7.50;99.90;;;;;;5084838;28;20474;-81
2021/12/16 04:32:48;;;;;;;6.23;3.90;;;7.50;99.90;;;;;;5093887;28;20476;-82
2021/12/16 04:35:17;;;;;;;9.50;4.70;;;7.40;99.90;;;;;;5087409;28;20469;-83
2021/12/16 04:37:46;;;;;;;8.60;4.60;;;7.40;99.90;;;;;;5087179;28;20476;-82
2021/12/16 04:40:16;;;;;;;7.77;5.50;;;7.20;1.00;;;;;;5093041;28;20472;-81
2021/12/16 04:42:45;;;;;;;6.13;4.20;;;7.30;1.00;;;;;;5100554;28;20457;-81
2021/12/16 04:45:18;;;;;;;6.80;3.67;;;7.40;99.90;;;;;;5095121;28;20489;-83
2021/12/16 04:47:47;;;;;;;8.07;4.80;;;7.40;99.90;;;;;;5093488;28;20764;-81
2021/12/16 04:50:16;;;;;;;7.40;3.70;;;7.30;99.90;;;;;;5088951;28;20953;-80
2021/12/16 04:52:45;;;;;;;7.90;4.50;;;7.30;1.00;;;;;;5084453;28;20910;-81
2021/12/16 04:55:15;;;;;;;11.30;5.83;;;7.50;99.90;;;;;;5097727;28;21144;-83
2021/12/16 04:57:43;;;;;;;10.47;5.20;;;7.40;99.90;;;;;;5100031;28;20477;-82
2021/12/16 05:00:16;;;;;;;12.43;6.73;;;7.30;1.00;;;;;;5088585;27;20466;-82
2021/12/16 05:02:45;;;;;;;10.57;5.93;;;7.30;99.90;;;;;;5098447;27;20441;-82
2021/12/16 05:05:17;;;;;;;12.73;6.77;;;7.30;99.90;;;;;;5100048;27;20441;-82
2021/12/16 05:07:47;;;;;;;8.53;6.00;;;7.20;1.00;;;;;;5096296;28;20483;-82
2021/12/16 05:10:17;;;;;;;9.03;5.50;;;7.10;1.00;;;;;;5101555;27;20895;-81
2021/12/16 05:12:50;;;;;;;8.30;5.50;;;7.20;1.00;;;;;;5104969;28;20842;-81
2021/12/16 05:15:23;;;;;;;11.70;6.00;;;7.10;1.00;;;;;;5088938;27;20456;-81
2021/12/16 05:17:54;;;;;;;12.33;6.30;;;7.20;1.00;;;;;;5095904;28;21022;-79
2021/12/16 05:20:24;;;;;;;13.90;7.33;;;7.30;1.00;;;;;;5090284;27;20460;-79
2021/12/16 05:25:47;;;;;;;11.43;6.77;;;7.50;99.90;;;;;;5094489;28;20466;-80
2021/12/16 05:28:18;;;;;;;11.73;6.63;;;7.50;99.90;;;;;;5100026;27;20465;-84
2021/12/16 05:30:48;;;;;;;13.57;6.10;;;7.60;99.90;;;;;;5097936;28;20470;-82
2021/12/16 05:33:17;;;;;;;13.03;6.80;;;7.40;99.90;;;;;;5090891;27;20468;-81
2021/12/16 05:35:46;;;;;;;11.60;5.97;;;7.30;99.90;;;;;;5100685;28;20449;-80
2021/12/16 05:38:14;;;;;;;12.37;6.20;;;7.20;1.00;;;;;;5092936;27;20491;-82
2021/12/16 05:40:42;;;;;;;10.57;6.13;;;7.30;99.90;;;;;;5094837;27;20502;-80
2021/12/16 05:43:14;;;;;;;12.13;6.17;;;7.30;1.00;;;;;;5093386;27;20463;-79
2021/12/16 05:45:45;;;;;;;11.23;6.10;;;7.40;1.00;;;;;;5095929;27;20480;-82
2021/12/16 05:48:18;;;;;;;23.27;10.47;;;7.10;99.90;;;;;;5103008;27;20449;-80
2021/12/16 05:50:48;;;;;;;12.90;8.23;;;7.10;30.80;;;;;;5095583;27;20499;-81
2021/12/16 05:53:17;;;;;;;11.87;6.13;;;6.90;1.00;;;;;;5098683;28;20456;-81
2021/12/16 05:55:47;;;;;;;13.00;5.50;;;7.30;1.00;;;;;;5095609;27;20626;-79
2021/12/16 05:58:18;;;;;;;9.87;5.17;;;7.30;1.00;;;;;;5094812;27;20571;-79
2021/12/16 06:00:50;;;;;;;16.43;7.03;;;7.40;99.90;;;;;;5091118;27;20485;-80
2021/12/16 06:03:21;;;;;;;11.03;6.33;;;7.50;99.90;;;;;;5095586;28;20611;-80
2021/12/16 06:05:50;;;;;;;15.77;6.20;;;7.60;99.90;;;;;;5093926;27;20457;-82
2021/12/16 06:08:19;;;;;;;10.23;5.93;;;7.70;99.90;;;;;;5095315;27;20972;-83
2021/12/16 06:13:44;;;;;;;11.93;5.40;;;7.80;99.90;;;;;;5090336;27;21346;-78
2021/12/16 06:27:15;;;;;;;9.40;5.10;;;7.70;99.90;;;;;;5094193;27;20454;-80
2021/12/16 06:29:47;;;;;;;11.47;6.07;;;7.60;99.90;;;;;;5091906;27;20889;-81
2021/12/16 06:32:17;;;;;;;9.40;4.67;;;7.60;99.90;;;;;;5084296;27;20469;-81
2021/12/16 06:34:47;;;;;;;12.10;5.50;;;7.40;99.90;;;;;;5085383;27;20450;-81
2021/12/16 06:37:15;;;;;;;10.03;5.07;;;7.40;99.90;;;;;;5091885;28;20961;-81
2021/12/16 06:39:43;;;;;;;11.40;5.10;;;7.50;99.90;;;;;;5102783;28;20469;-80
2021/12/16 06:42:12;;;;;;;9.30;5.43;;;7.60;99.90;;;;;;5098480;28;20826;-81
2021/12/16 06:44:44;;;;;;;8.90;4.60;;;7.50;99.90;;;;;;5093562;28;21029;-81
2021/12/16 06:47:18;;;;;;;11.57;7.05;;;7.60;99.90;;;;;;5101347;28;20474;-81
2021/12/16 06:49:50;;;;;;;11.50;5.20;;;7.60;99.90;;;;;;5083061;28;20224;-82
2021/12/16 06:52:23;;;;;;;12.50;7.60;;;7.60;99.90;;;;;;5087334;28;20466;-81
2021/12/16 06:55:03;;;;;;;12.77;5.60;;;7.60;99.90;;;;;;5094046;27;20207;-82
2021/12/16 06:57:41;;;;;;;9.83;5.07;;;7.50;99.90;;;;;;5098414;28;20454;-83
2021/12/16 07:00:15;;;;;;;9.80;4.90;;;7.60;99.90;;;;;;5091690;28;20502;-83
2021/12/16 07:03:00;;;;;;;9.70;5.77;;;7.60;99.90;;;;;;5089809;28;20984;-81
2021/12/16 07:05:33;;;;;;;14.33;5.73;;;7.70;99.90;;;;;;5099977;28;20452;-81
2021/12/16 07:08:04;;;;;;;9.27;5.27;;;7.70;99.90;;;;;;5096523;28;20453;-79
2021/12/16 07:10:32;;;;;;;11.50;6.10;;;7.60;99.90;;;;;;5100723;28;20469;-79
2021/12/16 07:13:06;;;;;;;13.37;5.70;;;7.50;99.90;;;;;;5101115;28;20574;-79
2021/12/16 07:15:37;;;;;;;8.80;5.20;;;7.60;99.90;;;;;;5090122;28;20786;-80
2021/12/16 07:18:06;;;;;;;14.03;6.60;;;7.60;99.90;;;;;;5095109;28;20472;-80
2021/12/16 07:20:37;;;;;;;10.95;5.72;;;7.50;99.90;;;;;;5092706;28;20476;-81
2021/12/16 07:23:08;;;;;;;13.13;7.30;;;7.40;99.90;;;;;;5096444;27;20203;-81
2021/12/16 07:25:37;;;;;;;10.77;5.87;;;7.30;1.00;;;;;;5085504;28;20454;-81
2021/12/16 07:28:07;;;;;;;8.33;4.60;;;7.40;1.00;;;;;;5099203;28;20513;-82
2021/12/16 07:30:37;;;;;;;11.37;6.10;;;7.50;99.90;;;;;;5097017;28;20484;-81
2021/12/16 07:33:07;;;;;;;12.30;6.43;;;7.60;99.90;;;;;;5087612;28;21344;-81
2021/12/16 07:35:38;;;;;;;8.57;5.40;;;7.60;99.90;;;;;;5089754;28;20827;-82
2021/12/16 07:38:09;;;;;;;11.90;6.47;;;7.70;99.90;;;;;;5093552;28;20489;-82
2021/12/16 07:40:39;;;;;;;12.80;6.13;;;7.70;99.90;;;;;;5095170;28;20476;-82
2021/12/16 07:43:26;;;;;;;13.30;5.63;;;7.70;99.90;;;;;;5095353;28;20447;-82
2021/12/16 07:45:56;;;;;;;10.67;4.70;;;7.70;99.90;;;;;;5088154;28;20461;-82
2021/12/16 07:48:27;;;;;;;11.27;5.70;;;7.70;99.90;;;;;;5096152;28;20449;-81
2021/12/16 07:51:02;;;;;;;13.50;5.83;;;7.60;99.90;;;;;;5094422;28;20633;-82
2021/12/16 07:53:30;;;;;;;11.80;5.97;;;7.60;99.90;;;;;;5087187;28;20446;-82
2021/12/16 07:55:59;;;;;;;13.23;5.70;;;7.70;99.90;;;;;;5094360;28;20464;-81
2021/12/16 07:58:27;;;;;;;13.30;6.33;;;7.80;99.90;;;;;;5091959;28;20484;-81
2021/12/16 08:01:02;;;;;;;11.00;5.80;;;7.70;99.90;;;;;;5095999;28;20484;-81
2021/12/16 08:03:35;;;;;;;12.80;6.07;;;7.70;99.90;;;;;;5098186;28;20597;-82
2021/12/16 08:06:10;;;;;;;10.33;5.27;;;7.70;99.90;;;;;;5090880;28;20556;-84
2021/12/16 08:08:39;;;;;;;11.50;5.97;;;7.80;99.90;;;;;;5095184;28;20517;-82
2021/12/16 08:11:08;;;;;;;11.40;6.20;;;7.80;93.10;;;;;;5096916;28;20500;-81
2021/12/16 08:13:37;;;;;;;11.57;5.20;;;7.80;91.70;;;;;;5088741;28;20452;-83
2021/12/16 08:16:06;;;;;;;10.43;5.03;;;7.90;65.20;;;;;;5098339;28;20452;-81
2021/12/16 08:18:34;;;;;;;11.60;6.03;;;7.90;92.10;;;;;;5095317;28;20476;-82
2021/12/16 08:21:04;;;;;;;12.43;6.60;;;8.00;93.60;;;;;;5101603;28;20624;-81
2021/12/16 08:23:33;;;;;;;14.30;7.28;;;8.00;78.10;;;;;;5093041;28;20461;-83
2021/12/16 08:26:02;;;;;;;10.97;6.33;;;8.00;52.90;;;;;;5093297;28;20204;-84
2021/12/16 08:28:31;;;;;;;11.07;5.07;;;8.00;65.50;;;;;;5096964;28;20515;-82
2021/12/16 08:30:59;;;;;;;13.90;6.63;;;8.00;59.40;;;;;;5101660;27;20477;-85
2021/12/16 08:33:28;;;;;;;10.60;5.30;;;8.10;53.10;;;;;;5095400;28;20465;-79
2021/12/16 08:35:57;;;;;;;13.43;6.10;;;8.10;41.50;;;;;;5105578;28;20453;-84
2021/12/16 08:38:27;;;;;;;14.67;7.00;;;8.10;54.60;;;;;;5105171;28;20933;-82
2021/12/16 08:41:00;;;;;;;11.10;7.23;;;8.10;53.40;;;;;;5094711;27;20506;-81
2021/12/16 08:43:28;;;;;;;11.10;6.47;;;8.10;26.30;;;;;;5097781;28;20500;-84
2021/12/16 08:45:57;;;;;;;13.83;6.03;;;8.10;53.20;;;;;;5095352;27;20454;-82
2021/12/16 08:48:27;;;;;;;12.07;6.53;;;8.20;61.80;;;;;;5093314;27;20940;-81
2021/12/16 08:50:55;;;;;;;16.60;6.23;;;8.20;53.90;;;;;;5098074;27;20476;-82
2021/12/16 08:53:26;;;;;;;10.93;7.00;;;8.20;36.50;;;;;;5104389;27;20476;-82
2021/12/16 08:55:55;;;;;;;15.37;6.47;;;8.20;5.50;;;;;;5092366;28;20569;-82
2021/12/16 08:58:26;;;;;;;14.97;6.20;;;8.30;17.30;;;;;;5100536;28;20545;-82
2021/12/16 09:01:00;;;;;;;9.90;5.77;;;8.00;53.90;;;;;;5098500;28;20483;-82
2021/12/16 09:03:30;;;;;;;14.20;6.93;;;8.00;98.30;;;;;;5096090;28;20452;-83
2021/12/16 09:05:59;;;;;;;12.37;6.60;;;8.10;92.00;;;;;;5089020;28;20505;-83
2021/12/16 09:08:30;;;;;;;14.53;6.83;;;8.00;53.80;;;;;;5097206;28;20454;-82
2021/12/16 09:11:03;;;;;;;12.90;6.50;;;8.00;52.80;;;;;;5100872;27;20461;-82
2021/12/16 09:13:32;;;;;;;11.77;6.20;;;8.00;90.70;;;;;;5101261;28;20556;-82
2021/12/16 09:16:03;;;;;;;17.97;7.63;;;8.00;53.20;;;;;;5095474;27;20462;-79
2021/12/16 09:18:34;;;;;;;13.87;7.37;;;8.00;87.60;;;;;;5100196;27;20468;-81
2021/12/16 09:21:05;;;;;;;10.57;5.37;;;8.00;57.50;;;;;;5095635;27;20478;-81
2021/12/16 09:23:42;;;;;;;12.73;5.40;;;7.90;92.70;;;;;;5095643;27;20989;-81
2021/12/16 09:26:12;;;;;;;9.27;5.70;;;7.60;99.90;;;;;;5101200;28;20468;-81
2021/12/16 09:28:40;;;;;;;11.13;5.57;;;8.00;99.90;;;;;;5101501;28;20479;-82
2021/12/16 09:31:13;;;;;;;13.13;5.97;;;8.00;99.90;;;;;;5094558;27;20530;-82
2021/12/16 09:33:43;;;;;;;14.43;5.77;;;7.90;99.90;;;;;;5093649;28;20464;-82
2021/12/16 09:36:14;;;;;;;10.20;6.30;;;8.00;99.90;;;;;;5094499;28;20996;-80
2021/12/16 09:38:46;;;;;;;9.03;5.73;;;8.00;99.90;;;;;;5096815;28;20449;-82
2021/12/16 09:41:14;;;;;;;12.80;6.43;;;8.10;99.90;;;;;;5091082;28;20484;-82
2021/12/16 09:43:46;;;;;;;11.53;5.53;;;8.10;99.90;;;;;;5084011;28;20462;-80
2021/12/16 09:46:18;;;;;;;13.13;7.33;;;8.10;99.90;;;;;;5093234;28;20971;-83
2021/12/16 09:48:46;;;;;;;12.80;7.10;;;8.20;99.90;;;;;;5091396;28;20462;-81
2021/12/16 09:51:21;;;;;;;11.27;6.30;;;8.20;99.90;;;;;;5096266;28;21013;-82
2021/12/16 09:53:56;;;;;;;13.47;6.57;;;8.20;99.90;;;;;;5098338;28;20457;-83
2021/12/16 09:56:26;;;;;;;9.83;5.70;;;8.30;99.90;;;;;;5098584;28;20464;-82
2021/12/16 09:58:55;;;;;;;14.20;5.73;;;8.30;97.60;;;;;;5102046;28;20452;-83
2021/12/16 10:01:26;;;;;;;9.80;5.50;;;8.30;99.90;;;;;;5091348;27;20475;-82
2021/12/16 10:04:00;;;;;;;12.77;6.67;;;8.40;91.10;;;;;;5092867;27;20462;-81
2021/12/16 10:06:30;;;;;;;13.00;6.20;;;8.40;99.90;;;;;;5092207;27;20459;-81
2021/12/16 10:09:01;;;;;;;14.40;6.37;;;8.40;84.50;;;;;;5100738;28;20453;-82
2021/12/16 10:11:31;;;;;;;10.83;5.33;;;8.40;25.00;;;;;;5085269;27;21072;-83
2021/12/16 10:14:04;;;;;;;9.47;5.60;;;8.50;38.00;;;;;;5094280;28;20462;-82
2021/12/16 10:19:23;;;;;;;14.50;6.97;;;8.50;92.90;;;;;;5103296;28;20481;-80
2021/12/16 10:21:53;;;;;;;12.60;6.90;;;8.50;99.90;;;;;;5090060;28;20475;-81
2021/12/16 10:24:25;;;;;;;10.80;6.63;;;8.50;99.90;;;;;;5094481;28;20490;-82
2021/12/16 10:27:12;;;;;;;10.37;5.90;;;8.60;72.40;;;;;;5103596;28;20977;-82
2021/12/16 10:29:43;;;;;;;11.80;6.00;;;8.60;91.70;;;;;;5100905;28;20457;-83
2021/12/16 10:32:35;;;;;;;11.17;5.40;;;8.60;99.90;;;;;;5089282;28;20445;-82
2021/12/16 10:35:07;;;;;;;12.87;6.13;;;8.60;91.00;;;;;;5102869;28;20498;-81
2021/12/16 10:37:37;;;;;;;8.73;4.90;;;8.70;62.90;;;;;;5097578;28;20450;-80
2021/12/16 10:40:34;;;;;;;11.57;5.97;;;8.60;53.60;;;;;;5093650;28;20492;-82
2021/12/16 10:43:06;;;;;;;11.97;5.93;;;8.60;52.50;;;;;;5101390;28;20464;-82
2021/12/16 10:45:39;;;;;;;9.50;5.30;;;8.70;68.00;;;;;;5098762;28;20544;-82
2021/12/16 10:48:20;;;;;;;11.83;5.57;;;8.70;79.30;;;;;;5096523;27;20769;-82
2021/12/16 10:50:51;;;;;;;11.83;6.43;;;8.70;99.00;;;;;;5093196;28;20462;-82
2021/12/16 10:54:09;;;;;;;9.53;5.00;;;8.80;99.90;;;;;;5102101;28;20448;-81
2021/12/16 10:56:53;;;;;;;11.47;6.40;;;8.80;98.30;;;;;;5087124;28;20454;-81
2021/12/16 10:59:25;;;;;;;8.87;5.27;;;8.80;21.60;;;;;;5082035;28;20513;-81
2021/12/16 11:01:57;;;;;;;9.07;5.03;;;8.80;53.80;;;;;;5083947;28;21164;-83
2021/12/16 11:04:31;;;;;;;9.53;5.00;;;8.80;15.70;;;;;;5095681;28;20632;-81
2021/12/16 11:07:03;;;;;;;9.90;5.03;;;8.70;1.00;;;;;;5092422;28;20545;-80
2021/12/16 11:09:44;;;;;;;9.03;4.80;;;8.70;1.00;;;;;;5093118;27;20555;-80
2021/12/16 11:12:31;;;;;;;13.53;5.93;;;8.60;26.90;;;;;;5102992;28;20472;-81
2021/12/16 11:15:02;;;;;;;8.73;5.30;;;8.70;15.20;;;;;;5101035;28;20465;-81
2021/12/16 11:17:34;;;;;;;10.07;4.33;;;8.70;14.50;;;;;;5093381;28;20454;-80
2021/12/16 11:20:13;;;;;;;6.73;4.10;;;8.80;1.00;;;;;;5096185;28;20838;-82
2021/12/16 11:22:47;;;;;;;8.43;3.83;;;8.70;7.50;;;;;;5097595;28;20954;-80
2021/12/16 11:25:20;;;;;;;9.93;4.67;;;9.00;28.20;;;;;;5100381;28;20963;-82
2021/12/16 11:27:54;;;;;;;12.07;4.70;;;8.70;27.10;;;;;;5102368;28;20449;-81
2021/12/16 11:30:33;;;;;;;8.43;4.87;;;8.80;47.00;;;;;;5083323;28;20480;-82
2021/12/16 11:33:26;;;;;;;8.37;4.60;;;8.80;28.90;;;;;;5098234;28;20452;-83
2021/12/16 11:36:08;;;;;;;6.73;3.90;;;8.80;1.00;;;;;;5081923;28;20468;-82
2021/12/16 11:38:39;;;;;;;9.23;4.73;;;8.80;1.00;;;;;;5091744;28;20467;-81
2021/12/16 11:41:15;;;;;;;8.33;4.10;;;8.80;1.00;;;;;;5091869;27;20487;-82
2021/12/16 11:44:00;;;;;;;8.50;4.63;;;8.80;1.00;;;;;;5093906;27;20960;-82
2021/12/16 11:46:33;;;;;;;8.43;3.90;;;8.70;46.80;;;;;;5090129;28;20214;-81
2021/12/16 11:49:24;;;;;;;12.83;4.60;;;8.80;99.90;;;;;;5098242;28;21094;-81
2021/12/16 11:51:59;;;;;;;11.13;4.57;;;8.90;99.90;;;;;;5096597;28;20481;-84
2021/12/16 11:54:33;;;;;;;7.87;4.63;;;8.90;99.90;;;;;;5091155;28;20467;-84
2021/12/16 11:57:08;;;;;;;8.93;4.73;;;9.00;99.90;;;;;;5091025;28;20462;-83
2021/12/16 11:59:41;;;;;;;8.57;4.73;;;9.00;99.90;;;;;;5094362;28;20470;-82
2021/12/16 12:02:23;;;;;;;9.80;4.20;;;9.00;80.30;;;;;;5094811;28;20881;-84
2021/12/16 12:04:53;;;;;;;8.70;5.15;;;9.10;43.00;;;;;;5095611;28;21006;-82
2021/12/16 12:07:21;;;;;;;9.17;5.50;;;9.00;18.10;;;;;;5104933;28;20271;-82
2021/12/16 12:09:53;;;;;;;7.33;4.20;;;9.10;1.00;;;;;;5093389;28;20956;-83
2021/12/16 12:12:43;;;;;;;8.47;4.57;;;9.10;1.00;;;;;;5101917;27;20811;-81
2021/12/16 12:15:14;;;;;;;5.37;3.43;;;9.10;1.00;;;;;;5100146;27;20467;-83
2021/12/16 12:17:50;;;;;;;5.87;4.43;;;9.10;1.00;;;;;;5099298;28;20452;-80
2021/12/16 12:20:19;;;;;;;5.55;2.83;;;9.10;1.00;;;;;;5101426;28;20456;-81
2021/12/16 12:22:50;;;;;;;5.50;3.20;;;9.10;1.00;;;;;;5095907;28;20208;-81
2021/12/16 12:25:18;;;;;;;4.20;2.93;;;9.10;1.00;;;;;;5103038;28;20453;-81
2021/12/16 12:27:48;;;;;;;5.10;3.80;;;9.10;1.00;;;;;;5099467;28;20445;-81
2021/12/16 12:30:19;;;;;;;6.60;4.00;;;9.20;1.00;;;;;;5088561;27;20476;-83
2021/12/16 12:32:51;;;;;;;9.97;4.17;;;9.20;1.00;;;;;;5098020;27;21118;-81
2021/12/16 12:35:25;;;;;;;10.43;4.67;;;9.20;1.00;;;;;;5098866;27;21250;-81
2021/12/16 12:37:55;;;;;;;4.50;3.40;;;9.20;1.00;;;;;;5104212;28;20474;-82
2021/12/16 12:40:29;;;;;;;5.00;3.37;;;9.10;1.00;;;;;;5099144;28;20849;-83
2021/12/16 12:42:58;;;;;;;6.10;3.97;;;9.10;1.00;;;;;;5100287;28;20473;-80
2021/12/16 12:45:31;;;;;;;6.73;3.53;;;9.10;1.00;;;;;;5095007;28;20448;-80
2021/12/16 12:48:01;;;;;;;7.80;4.33;;;9.10;1.00;;;;;;5097690;28;20463;-83
2021/12/16 12:50:32;;;;;;;8.40;5.10;;;9.10;1.00;;;;;;5090898;28;20639;-81
2021/12/16 12:53:12;;;;;;;6.90;3.93;;;9.10;1.00;;;;;;5095378;27;20452;-82
2021/12/16 12:55:42;;;;;;;8.90;4.60;;;9.10;1.00;;;;;;5097416;28;20506;-81
2021/12/16 12:58:14;;;;;;;5.20;3.80;;;9.10;1.00;;;;;;5097059;28;20546;-81
2021/12/16 13:00:47;;;;;;;8.03;4.37;;;9.10;1.00;;;;;;5096252;28;20509;-83
2021/12/16 13:03:27;;;;;;;7.93;4.87;;;9.10;1.00;;;;;;5092458;28;20485;-81
2021/12/16 13:05:58;;;;;;;10.47;5.63;;;9.10;1.00;;;;;;5090535;27;20452;-82
2021/12/16 13:08:29;;;;;;;7.37;5.23;;;9.10;1.00;;;;;;5096658;28;20491;-80
2021/12/16 13:11:00;;;;;;;8.13;5.00;;;9.10;1.00;;;;;;5095351;28;20563;-84
2021/12/16 13:13:34;;;;;;;6.30;4.60;;;9.10;1.00;;;;;;5090652;28;20441;-78
2021/12/16 13:27:34;;;;;;;6.60;4.20;;;9.30;1.00;;;;;;5097694;28;20473;-79
2021/12/16 13:30:17;;;;;;;8.00;4.13;;;9.30;1.00;;;;;;5090841;28;20821;-81
2021/12/16 13:33:15;;;;;;;9.50;4.10;;;9.30;1.00;;;;;;5094771;28;20971;-81
2021/12/16 13:35:49;;;;;;;6.60;3.60;;;9.30;1.00;;;;;;5089965;27;20456;-82
2021/12/16 13:38:20;;;;;;;10.17;5.53;;;9.30;1.00;;;;;;5096040;28;20492;-81
2021/12/16 13:40:51;;;;;;;7.00;4.27;;;9.40;1.00;;;;;;5089606;28;20892;-82
2021/12/16 13:43:26;;;;;;;12.93;5.43;;;9.40;1.00;;;;;;5090912;28;20484;-82
2021/12/16 13:46:15;;;;;;;9.13;4.67;;;9.50;1.00;;;;;;5097012;28;20557;-82
2021/12/16 13:48:56;;;;;;;9.10;5.60;;;9.50;1.00;;;;;;5088257;28;20936;-81
2021/12/16 14:02:58;;;;;;;10.27;6.03;;;9.50;1.00;;;;;;5054370;27;20993;-82
2021/12/16 14:05:56;;;;;;;9.87;5.23;;;9.50;1.00;;;;;;5098063;27;20455;-82
2021/12/16 14:08:36;;;;;;;8.60;5.60;;;9.50;1.00;;;;;;5094775;28;20482;-81
2021/12/16 14:12:05;;;;;;;10.20;4.57;;;9.60;1.00;;;;;;5092591;27;20493;-81
2021/12/16 14:14:48;;;;;;;9.27;4.80;;;9.60;1.00;;;;;;5091336;27;20467;-81
2021/12/16 14:17:43;;;;;;;7.80;4.80;;;9.60;1.00;;;;;;5095342;28;20954;-81
2021/12/16 14:23:15;;;;;;;10.53;4.87;;;9.60;1.00;;;;;;5095685;28;20511;-82
2021/12/16 14:26:09;;;;;;;9.80;5.77;;;9.60;1.00;;;;;;5097514;28;20484;-82
2021/12/16 14:40:06;;;;;;;7.90;4.47;;;9.60;1.00;;;;;;5068945;27;20507;-85
2021/12/16 14:42:46;;;;;;;7.87;3.93;;;9.60;1.00;;;;;;5088841;27;20490;-84
2021/12/16 14:45:26;;;;;;;9.57;5.07;;;9.60;1.00;;;;;;5099088;27;20452;-83
2021/12/16 14:50:49;;;;;;;7.10;3.90;;;9.60;1.00;;;;;;5091322;27;20478;-80
2021/12/16 14:53:21;;;;;;;6.17;4.10;;;9.60;1.00;;;;;;5100283;27;20497;-84
2021/12/16 14:55:55;;;;;;;8.80;4.83;;;9.60;1.00;;;;;;5099371;27;20464;-83
2021/12/16 14:58:25;;;;;;;4.60;3.23;;;9.60;1.00;;;;;;5097932;27;20501;-82
2021/12/16 15:00:59;;;;;;;8.27;5.00;;;9.60;1.00;;;;;;5087818;28;20573;-81
2021/12/16 15:03:33;;;;;;;5.97;3.80;;;9.60;1.00;;;;;;5089869;28;20474;-82
2021/12/16 15:06:06;;;;;;;6.43;3.67;;;9.60;1.00;;;;;;5102108;27;20454;-83
2021/12/16 15:08:42;;;;;;;10.10;4.63;;;9.60;1.00;;;;;;5094875;27;20549;-83
2021/12/16 15:11:17;;;;;;;6.63;3.60;;;9.60;1.00;;;;;;5096613;27;20540;-83
2021/12/16 15:13:51;;;;;;;8.30;4.53;;;9.50;1.00;;;;;;5097241;27;20458;-82
2021/12/16 15:16:41;;;;;;;7.73;3.60;;;9.60;1.00;;;;;;5095456;27;20459;-81
2021/12/16 15:36:41;;;;;;;7.67;4.47;;;9.50;1.00;;;;;;5090312;27;20964;-82
2021/12/16 15:39:24;;;;;;;9.93;5.17;;;9.50;1.00;;;;;;5085785;28;20486;-82
2021/12/16 15:44:50;;;;;;;8.97;6.17;;;9.50;1.00;;;;;;5087160;28;20466;-81
2021/12/16 15:47:19;;;;;;;11.17;6.20;;;9.50;1.00;;;;;;5085981;28;20550;-81
2021/12/16 15:49:49;;;;;;;10.57;4.73;;;9.40;1.00;;;;;;5093144;28;20483;-81
2021/12/16 15:52:17;;;;;;;9.70;5.40;;;9.40;1.00;;;;;;5086028;28;20800;-80
2021/12/16 15:54:48;;;;;;;9.50;5.13;;;9.30;1.00;;;;;;5088762;28;20453;-81
2021/12/16 15:57:17;;;;;;;10.80;5.40;;;9.30;1.00;;;;;;5091843;28;20451;-82
2021/12/16 16:02:42;;;;;;;9.50;5.70;;;9.30;1.00;;;;;;5090279;27;20661;-79
2021/12/16 16:05:11;;;;;;;8.40;5.13;;;9.30;1.00;;;;;;5070882;28;20858;-78
2021/12/16 16:07:41;;;;;;;8.97;5.50;;;9.30;1.00;;;;;;5068880;28;20456;-80
2021/12/16 16:10:13;;;;;;;11.70;6.33;;;9.30;1.00;;;;;;5070032;28;20469;-82
2021/12/16 16:12:41;;;;;;;10.77;5.23;;;9.30;1.00;;;;;;5066646;28;21311;-79
2021/12/16 16:15:17;;;;;;;11.73;6.17;;;9.20;1.00;;;;;;5070311;28;20459;-79
2021/12/16 16:18:12;;;;;;;10.40;6.67;;;9.20;1.00;;;;;;5065321;28;20548;-82